Time;durP1;ratioP1;P1;durP2;ratioP2;P2;SDS_P1;SDS_P2;PMS_P1;PMS_P2;Temp;Humidity;BMP_temperature;BMP_pressure;BME280_temperature;BME280_humidity;BME280_pressure;Samples;Min_cycle;Max_cycle;Signal;HPM_P1;HPM_P2
2022/08/26 00:00:31;;;;;;;18.88;5.47;;;;;;;20.48;93.57;94366.06;5079321;28;20211;-79
2022/08/26 00:02:58;;;;;;;17.83;5.80;;;;;;;20.53;96.37;94372.06;5078413;28;20663;-79
2022/08/26 00:05:27;;;;;;;16.63;5.25;;;;;;;20.44;95.47;94368.50;5078067;28;20201;-80
2022/08/26 00:07:54;;;;;;;26.77;5.75;;;;;;;20.39;95.03;94365.94;5078035;28;20213;-79
2022/08/26 00:10:21;;;;;;;20.65;5.53;;;;;;;20.42;94.95;94365.38;5079316;28;20674;-79
2022/08/26 00:12:48;;;;;;;28.25;5.43;;;;;;;20.29;95.05;94369.50;5080778;28;20208;-82
2022/08/26 00:15:18;;;;;;;22.50;6.43;;;;;;;20.19;95.62;94369.59;5081256;28;20247;-81
2022/08/26 00:17:45;;;;;;;26.48;5.88;;;;;;;20.17;97.17;94368.31;5080017;28;20208;-81
2022/08/26 00:23:30;;;;;;;27.05;6.40;;;;;;;20.07;97.94;94381.63;5081504;28;20232;-81
2022/08/26 00:26:13;;;;;;;18.95;5.90;;;;;;;20.11;99.66;94372.88;5076572;28;20934;-81
2022/08/26 00:28:41;;;;;;;18.30;6.20;;;;;;;20.13;100.00;94373.38;5065989;28;20205;-80
2022/08/26 00:31:08;;;;;;;23.20;6.10;;;;;;;20.17;100.00;94373.59;5068455;28;20267;-81
2022/08/26 00:33:35;;;;;;;25.02;6.22;;;;;;;20.17;100.00;94365.69;5066389;28;20212;-79
2022/08/26 00:36:02;;;;;;;29.95;5.32;;;;;;;20.19;100.00;94369.59;5065493;28;20283;-79
2022/08/26 00:38:30;;;;;;;27.42;5.72;;;;;;;20.24;100.00;94366.91;5064456;28;20216;-79
2022/08/26 00:40:57;;;;;;;19.20;5.80;;;;;;;20.24;100.00;94363.47;5065448;28;20225;-79
2022/08/26 00:43:25;;;;;;;17.70;5.82;;;;;;;20.22;100.00;94369.03;5065540;28;20201;-78
2022/08/26 00:45:57;;;;;;;19.05;5.68;;;;;;;20.25;100.00;94355.31;5063862;28;20213;-79
2022/08/26 00:48:27;;;;;;;19.42;5.45;;;;;;;20.23;100.00;94359.28;5063657;28;20927;-79
2022/08/26 00:51:02;;;;;;;17.08;5.38;;;;;;;20.25;100.00;94357.94;5064671;28;20205;-79
2022/08/26 00:53:34;;;;;;;25.70;6.00;;;;;;;20.24;100.00;94366.91;5065083;28;20208;-79
2022/08/26 00:56:06;;;;;;;28.50;6.13;;;;;;;20.22;100.00;94365.63;5064904;28;20322;-79
2022/08/26 00:58:36;;;;;;;22.58;6.40;;;;;;;20.11;100.00;94372.09;5065095;28;20220;-79
2022/08/26 01:01:04;;;;;;;24.17;6.03;;;;;;;19.90;99.72;94358.38;5065840;28;20228;-79
2022/08/26 01:03:33;;;;;;;23.83;6.18;;;;;;;19.75;100.00;94366.47;5065954;28;20223;-77
2022/08/26 01:06:02;;;;;;;23.02;5.82;;;;;;;19.77;100.00;94364.31;5065741;28;20205;-78
2022/08/26 01:08:30;;;;;;;30.88;6.13;;;;;;;19.48;100.00;94358.34;5064522;28;20210;-78
2022/08/26 01:11:00;;;;;;;21.83;6.20;;;;;;;19.31;100.00;94357.97;5064816;28;20205;-78
2022/08/26 01:13:28;;;;;;;28.85;5.93;;;;;;;19.28;100.00;94361.91;5065010;28;20197;-77
2022/08/26 01:15:58;;;;;;;23.77;6.40;;;;;;;19.34;100.00;94355.53;5063664;28;20633;-77
2022/08/26 01:18:25;;;;;;;25.60;6.03;;;;;;;19.41;100.00;94358.66;5062568;28;20854;-76
2022/08/26 01:20:58;;;;;;;19.88;5.82;;;;;;;19.46;100.00;94342.78;5063518;28;20288;-77
2022/08/26 01:23:32;;;;;;;28.02;6.03;;;;;;;19.54;100.00;94347.44;5063699;28;20582;-76
2022/08/26 01:26:02;;;;;;;24.15;6.05;;;;;;;19.60;100.00;94342.91;5065422;28;20236;-76
2022/08/26 01:28:33;;;;;;;26.77;6.03;;;;;;;19.65;100.00;94345.50;5063572;28;20589;-78
2022/08/26 01:31:04;;;;;;;21.33;6.03;;;;;;;19.69;100.00;94341.22;5064188;28;20209;-77
2022/08/26 01:33:38;;;;;;;22.50;5.63;;;;;;;19.70;100.00;94343.59;5063230;28;20212;-77
2022/08/26 01:36:06;;;;;;;27.45;6.03;;;;;;;19.62;100.00;94346.84;5064781;28;20220;-77
2022/08/26 01:38:34;;;;;;;24.38;6.05;;;;;;;19.65;100.00;94350.78;5063152;28;20600;-77
2022/08/26 01:41:03;;;;;;;22.90;5.85;;;;;;;19.53;100.00;94337.19;5065055;28;21675;-77
2022/08/26 01:43:32;;;;;;;25.35;5.50;;;;;;;19.40;100.00;94337.84;5064755;28;20235;-77
2022/08/26 01:46:01;;;;;;;32.88;5.85;;;;;;;19.41;100.00;94344.69;5065748;28;20664;-76
2022/08/26 01:48:31;;;;;;;26.60;6.20;;;;;;;19.39;100.00;94336.28;5063858;28;20213;-76
2022/08/26 01:50:59;;;;;;;22.08;5.80;;;;;;;19.42;100.00;94346.28;5062848;28;20332;-76
2022/08/26 01:53:27;;;;;;;23.70;5.55;;;;;;;19.33;100.00;94347.91;5063794;28;20213;-76
2022/08/26 01:55:59;;;;;;;27.25;5.88;;;;;;;19.28;100.00;94339.00;5064305;28;20236;-77
2022/08/26 01:58:32;;;;;;;22.95;6.03;;;;;;;19.38;100.00;94347.88;5063621;28;20243;-77
2022/08/26 02:00:59;;;;;;;22.08;6.05;;;;;;;19.33;100.00;94342.66;5064570;28;20315;-78
2022/08/26 02:03:27;;;;;;;26.00;6.25;;;;;;;19.35;100.00;94341.31;5063657;28;20202;-77
2022/08/26 02:05:56;;;;;;;22.40;5.97;;;;;;;19.38;100.00;94345.22;5061997;28;20208;-76
2022/08/26 02:08:27;;;;;;;19.27;6.45;;;;;;;19.35;100.00;94343.16;5061254;28;20228;-76
2022/08/26 02:10:56;;;;;;;23.30;6.05;;;;;;;19.38;100.00;94343.38;5064793;28;20205;-76
2022/08/26 02:13:25;;;;;;;24.85;6.43;;;;;;;19.44;100.00;94341.50;5063879;28;20205;-76
2022/08/26 02:15:54;;;;;;;22.08;5.97;;;;;;;19.69;100.00;94349.13;5063672;28;20235;-76
2022/08/26 02:18:21;;;;;;;34.75;6.35;;;;;;;19.88;100.00;94341.25;5064006;28;20324;-76
2022/08/26 02:20:48;;;;;;;23.00;6.18;;;;;;;19.92;100.00;94350.16;5064396;28;20290;-76
2022/08/26 02:23:15;;;;;;;20.65;5.80;;;;;;;19.92;100.00;94345.69;5062626;28;20197;-76
2022/08/26 02:25:49;;;;;;;21.77;6.05;;;;;;;19.89;100.00;94340.97;5062105;28;20656;-77
2022/08/26 02:28:18;;;;;;;30.58;6.95;;;;;;;19.90;100.00;94342.53;5063305;28;20193;-77
2022/08/26 02:30:45;;;;;;;24.80;6.25;;;;;;;19.79;100.00;94347.16;5063580;28;20205;-77
2022/08/26 02:33:13;;;;;;;23.15;6.10;;;;;;;19.58;100.00;94350.31;5061922;28;20288;-76
2022/08/26 02:35:40;;;;;;;26.95;6.68;;;;;;;19.39;100.00;94328.38;5059606;28;20221;-74
2022/08/26 02:38:09;;;;;;;34.67;6.78;;;;;;;19.43;100.00;94338.06;5061910;28;20562;-75
2022/08/26 02:40:39;;;;;;;20.38;5.80;;;;;;;19.49;100.00;94341.44;5060714;28;20262;-75
2022/08/26 02:43:06;;;;;;;24.17;6.75;;;;;;;19.46;100.00;94339.38;5062223;28;20691;-75
2022/08/26 02:45:35;;;;;;;24.48;6.50;;;;;;;19.47;100.00;94343.59;5064245;28;20263;-75
2022/08/26 02:48:10;;;;;;;29.77;5.82;;;;;;;19.49;100.00;94338.81;5062214;28;20217;-75
2022/08/26 02:50:37;;;;;;;23.35;6.22;;;;;;;19.57;100.00;94348.72;5063635;28;20215;-75
2022/08/26 02:53:04;;;;;;;22.23;5.82;;;;;;;19.49;100.00;94347.50;5063630;28;20209;-76
2022/08/26 02:55:34;;;;;;;19.48;5.97;;;;;;;19.33;100.00;94351.34;5064048;28;20229;-75
2022/08/26 02:58:01;;;;;;;35.60;6.47;;;;;;;19.31;100.00;94344.78;5063149;28;20267;-75
2022/08/26 03:00:28;;;;;;;31.60;6.65;;;;;;;19.24;100.00;94342.47;5062065;28;20209;-75
2022/08/26 03:02:57;;;;;;;32.58;6.53;;;;;;;19.26;100.00;94349.03;5062547;28;20209;-75
2022/08/26 03:05:25;;;;;;;33.65;5.82;;;;;;;19.28;100.00;94340.84;5063412;28;20575;-75
2022/08/26 03:07:52;;;;;;;28.33;6.10;;;;;;;19.37;100.00;94347.06;5063104;28;20583;-75
2022/08/26 03:10:20;;;;;;;20.08;6.32;;;;;;;19.41;100.00;94347.34;5062579;28;20201;-75
2022/08/26 03:12:48;;;;;;;21.00;5.82;;;;;;;19.49;100.00;94349.34;5062854;28;20197;-75
2022/08/26 03:15:17;;;;;;;28.48;6.15;;;;;;;19.47;100.00;94348.84;5060447;28;20247;-75
2022/08/26 03:17:44;;;;;;;24.23;5.68;;;;;;;19.49;100.00;94352.78;5062166;28;20221;-76
2022/08/26 03:20:13;;;;;;;28.10;5.70;;;;;;;19.46;100.00;94348.06;5059580;28;20224;-76
2022/08/26 03:22:40;;;;;;;32.20;7.07;;;;;;;19.48;100.00;94350.44;5062467;28;20219;-75
2022/08/26 03:25:10;;;;;;;31.85;7.30;;;;;;;19.42;100.00;94354.97;5062263;28;20718;-75
2022/08/26 03:27:37;;;;;;;34.58;6.53;;;;;;;19.38;100.00;94345.22;5063268;28;20201;-77
2022/08/26 03:32:50;;;;;;;45.08;7.80;;;;;;;19.49;100.00;94350.13;5062223;28;20227;-77
2022/08/26 03:35:18;;;;;;;30.87;6.13;;;;;;;19.49;100.00;94352.00;5062557;28;20762;-76
2022/08/26 03:37:45;;;;;;;31.90;6.70;;;;;;;19.48;100.00;94347.78;5062132;28;20198;-76
2022/08/26 03:40:12;;;;;;;30.52;6.60;;;;;;;19.46;100.00;94347.28;5061610;28;20679;-76
2022/08/26 03:42:40;;;;;;;29.45;5.93;;;;;;;19.47;100.00;94348.84;5062079;28;20255;-76
2022/08/26 03:45:10;;;;;;;29.02;6.18;;;;;;;19.40;100.00;94329.94;5059140;28;20263;-76
2022/08/26 03:47:37;;;;;;;30.95;6.78;;;;;;;19.56;100.00;94349.81;5061040;28;20197;-76
2022/08/26 03:50:05;;;;;;;20.98;6.32;;;;;;;19.57;100.00;94346.88;5060565;28;20209;-76
2022/08/26 03:52:33;;;;;;;28.27;7.38;;;;;;;19.50;100.00;94350.94;5060944;28;20252;-76
2022/08/26 03:55:00;;;;;;;27.20;6.82;;;;;;;19.48;100.00;94347.78;5062729;28;20232;-76
2022/08/26 03:57:27;;;;;;;32.28;6.57;;;;;;;19.46;100.00;94347.28;5060398;28;20208;-76
2022/08/26 03:59:54;;;;;;;27.50;7.18;;;;;;;19.50;100.00;94345.66;5060594;28;20201;-76
2022/08/26 04:02:20;;;;;;;28.80;7.53;;;;;;;19.51;100.00;94347.25;5064438;28;20626;-76
2022/08/26 04:04:47;;;;;;;38.35;6.60;;;;;;;19.50;100.00;94350.94;5065380;28;20231;-77
2022/08/26 04:07:14;;;;;;;28.15;6.35;;;;;;;19.53;100.00;94353.00;5065272;28;20197;-76
2022/08/26 04:09:42;;;;;;;24.80;6.60;;;;;;;19.53;100.00;94339.81;5063811;28;20231;-78
2022/08/26 04:12:09;;;;;;;21.40;6.43;;;;;;;19.61;100.00;94344.47;5062292;28;20201;-77
2022/08/26 04:14:37;;;;;;;47.08;7.05;;;;;;;19.62;100.00;94341.56;5065093;28;20276;-77
2022/08/26 04:17:05;;;;;;;43.72;7.55;;;;;;;19.54;100.00;94344.81;5065917;28;20217;-78
2022/08/26 04:19:32;;;;;;;41.03;7.72;;;;;;;19.39;100.00;94341.56;5064323;28;20308;-77
2022/08/26 04:21:59;;;;;;;38.15;7.47;;;;;;;19.37;100.00;94346.28;5065042;28;20205;-77
2022/08/26 04:24:27;;;;;;;31.50;7.28;;;;;;;19.40;100.00;94337.84;5063391;28;20216;-75
2022/08/26 04:26:56;;;;;;;29.38;7.35;;;;;;;19.49;100.00;94342.22;5062657;28;20824;-76
2022/08/26 04:29:26;;;;;;;38.28;8.07;;;;;;;19.57;100.00;94338.97;5064634;28;20209;-75
2022/08/26 04:31:54;;;;;;;37.35;7.63;;;;;;;19.57;100.00;94341.59;5062575;28;20217;-74
2022/08/26 04:34:22;;;;;;;38.58;8.93;;;;;;;19.59;100.00;94338.72;5063981;28;20275;-74
2022/08/26 04:36:49;;;;;;;33.72;8.32;;;;;;;19.58;100.00;94343.19;5064488;28;20256;-73
2022/08/26 04:39:16;;;;;;;31.30;8.05;;;;;;;19.62;100.00;94346.06;5063346;28;20190;-74
2022/08/26 04:41:44;;;;;;;25.83;7.18;;;;;;;19.89;100.00;94346.25;5062471;28;20923;-74
2022/08/26 04:44:12;;;;;;;29.55;7.45;;;;;;;20.09;98.87;94345.97;5062121;28;20197;-74
2022/08/26 04:46:39;;;;;;;36.97;7.63;;;;;;;20.24;97.26;94348.41;5063141;28;20205;-74
2022/08/26 04:49:10;;;;;;;27.88;7.35;;;;;;;20.26;97.17;94346.31;5063325;28;20197;-75
2022/08/26 04:51:37;;;;;;;39.05;7.75;;;;;;;20.31;97.07;94348.88;5064179;28;20200;-75
2022/08/26 04:54:05;;;;;;;27.00;7.07;;;;;;;20.36;98.56;94335.63;5063138;28;20189;-74
2022/08/26 04:56:35;;;;;;;37.15;7.82;;;;;;;20.40;98.12;94341.13;5063713;28;20221;-75
2022/08/26 04:59:04;;;;;;;28.70;8.23;;;;;;;20.36;99.28;94335.63;5063582;28;20660;-75
2022/08/26 05:01:34;;;;;;;37.35;7.82;;;;;;;20.44;99.90;94346.59;5051427;28;20295;-75
2022/08/26 05:04:02;;;;;;;29.55;7.90;;;;;;;20.45;99.62;94342.88;5056568;28;20234;-75
2022/08/26 05:06:29;;;;;;;38.75;8.30;;;;;;;20.49;98.02;94349.94;5061885;28;20235;-75
2022/08/26 05:08:56;;;;;;;48.22;8.90;;;;;;;20.44;97.96;94343.94;5064566;28;20201;-75
2022/08/26 05:11:23;;;;;;;41.08;9.20;;;;;;;20.36;98.78;94353.31;5062492;28;20198;-76
2022/08/26 05:13:50;;;;;;;43.63;8.85;;;;;;;20.31;99.69;94353.38;5061634;28;20626;-73
2022/08/26 05:16:18;;;;;;;36.38;9.63;;;;;;;20.20;99.47;94357.97;5062056;28;20730;-75
2022/08/26 05:18:46;;;;;;;37.83;8.57;;;;;;;20.22;99.62;94357.69;5061093;28;20209;-75
2022/08/26 05:21:19;;;;;;;43.58;9.35;;;;;;;20.26;99.89;94364.78;5061881;28;20205;-74
2022/08/26 05:23:46;;;;;;;45.35;8.40;;;;;;;20.38;100.00;94354.59;5060910;28;20210;-74
2022/08/26 05:26:13;;;;;;;35.30;8.25;;;;;;;20.47;99.26;94359.22;5063653;28;20292;-74
2022/08/26 05:28:40;;;;;;;30.80;8.55;;;;;;;20.55;100.00;94358.59;5059896;28;20593;-74
2022/08/26 05:31:15;;;;;;;35.85;8.93;;;;;;;20.59;100.00;94354.28;5065520;28;20208;-74
2022/08/26 05:33:42;;;;;;;38.53;9.27;;;;;;;20.62;98.73;94365.06;5061736;28;20213;-74
2022/08/26 05:36:13;;;;;;;29.27;8.52;;;;;;;20.94;98.83;94359.03;5062334;28;20229;-79
2022/08/26 05:38:40;;;;;;;35.08;8.02;;;;;;;21.14;96.12;94363.22;5063204;28;20545;-75
2022/08/26 05:41:15;;;;;;;36.05;8.88;;;;;;;21.17;95.77;94363.41;5060557;28;20217;-74
2022/08/26 05:43:42;;;;;;;33.40;8.45;;;;;;;21.20;94.86;94368.13;5060839;28;20725;-73
2022/08/26 05:46:09;;;;;;;36.33;8.32;;;;;;;21.16;94.38;94367.13;5064134;28;20204;-74
2022/08/26 05:48:36;;;;;;;41.38;7.80;;;;;;;21.19;94.51;94374.47;5064155;28;20205;-79
2022/08/26 05:51:05;;;;;;;28.33;7.97;;;;;;;21.29;94.49;94368.25;5063641;28;20292;-74
2022/08/26 05:53:34;;;;;;;31.10;8.80;;;;;;;21.35;94.10;94369.72;5062003;28;20221;-78
2022/08/26 05:56:03;;;;;;;41.97;7.70;;;;;;;21.43;93.73;94374.34;5061437;28;21015;-74
2022/08/26 05:58:30;;;;;;;38.35;8.88;;;;;;;21.47;93.97;94367.41;5060531;28;20210;-75
2022/08/26 06:01:00;;;;;;;28.55;8.45;;;;;;;21.50;92.15;94372.06;5066333;28;20202;-82
2022/08/26 06:03:27;;;;;;;36.72;8.70;;;;;;;21.52;91.81;94358.56;5064796;28;20225;-81
2022/08/26 06:05:54;;;;;;;30.85;8.40;;;;;;;21.64;91.68;94375.53;5064166;28;20200;-81
2022/08/26 06:08:21;;;;;;;34.33;8.68;;;;;;;21.65;89.71;94373.66;5063976;28;20611;-80
2022/08/26 06:10:52;;;;;;;37.85;7.85;;;;;;;21.64;89.48;94380.03;5062355;28;20943;-81
2022/08/26 06:13:22;;;;;;;30.42;7.13;;;;;;;21.66;89.50;94370.72;5063080;28;20197;-81
2022/08/26 06:15:51;;;;;;;40.03;7.85;;;;;;;21.71;89.53;94381.22;5064631;28;20237;-81
2022/08/26 06:18:20;;;;;;;24.27;7.90;;;;;;;21.78;89.75;94378.97;5064352;28;20201;-82
2022/08/26 06:20:48;;;;;;;29.30;7.13;;;;;;;21.82;90.33;94387.88;5064558;28;20209;-81
2022/08/26 06:26:02;;;;;;;31.98;7.82;;;;;;;21.90;89.33;94386.44;5063444;28;20270;-80
2022/08/26 06:28:29;;;;;;;27.85;7.80;;;;;;;21.99;89.27;94385.44;5060879;28;20328;-81
2022/08/26 06:30:56;;;;;;;36.92;7.90;;;;;;;22.04;88.88;94390.66;5063085;28;20216;-81
2022/08/26 06:33:24;;;;;;;20.75;6.80;;;;;;;22.13;88.17;94387.31;5061997;28;20205;-81
2022/08/26 06:35:52;;;;;;;28.38;7.40;;;;;;;22.21;87.37;94386.59;5062099;28;20211;-81
2022/08/26 06:38:19;;;;;;;30.60;7.63;;;;;;;22.26;86.70;94389.94;5063329;28;20209;-81
2022/08/26 06:40:48;;;;;;;34.83;7.70;;;;;;;22.31;86.14;94395.13;5063221;28;20212;-80
2022/08/26 06:43:18;;;;;;;31.77;7.05;;;;;;;22.37;86.18;94393.94;5061942;28;20212;-81
2022/08/26 06:45:45;;;;;;;30.33;7.45;;;;;;;22.41;86.55;94399.41;5062213;28;20220;-81
2022/08/26 06:48:13;;;;;;;26.73;6.97;;;;;;;22.37;87.02;94395.78;5060560;28;21539;-80
2022/08/26 06:50:41;;;;;;;31.10;7.57;;;;;;;22.46;85.66;94404.59;5060045;28;20197;-80
2022/08/26 06:53:08;;;;;;;37.03;6.75;;;;;;;22.48;84.24;94397.16;5064795;28;20205;-81
2022/08/26 06:55:39;;;;;;;29.73;6.72;;;;;;;22.51;83.46;94401.88;5063439;28;20209;-81
2022/08/26 06:58:06;;;;;;;31.63;6.75;;;;;;;22.55;82.65;94398.31;5064161;28;20221;-81
2022/08/26 07:00:35;;;;;;;29.45;6.78;;;;;;;22.54;83.37;94394.09;5062799;28;20205;-81
2022/08/26 07:03:02;;;;;;;23.60;6.70;;;;;;;22.44;84.23;94404.91;5062206;28;20212;-81
2022/08/26 07:05:29;;;;;;;21.45;6.50;;;;;;;22.37;84.33;94399.22;5062097;28;21180;-81
2022/08/26 07:07:56;;;;;;;25.63;6.93;;;;;;;22.43;84.95;94394.59;5062650;28;20695;-80
2022/08/26 07:10:23;;;;;;;26.27;6.38;;;;;;;22.90;82.67;94401.25;5047431;28;20225;-80
2022/08/26 07:12:50;;;;;;;25.90;6.68;;;;;;;23.16;80.30;94397.72;5059202;28;20549;-80
2022/08/26 07:15:18;;;;;;;17.95;6.40;;;;;;;23.13;80.38;94397.53;5061788;28;20232;-79
2022/08/26 07:17:46;;;;;;;28.65;6.22;;;;;;;23.15;80.57;94400.66;5062851;28;20224;-82
2022/08/26 07:20:13;;;;;;;26.83;6.20;;;;;;;23.19;81.00;94404.28;5061894;28;20286;-80
2022/08/26 07:22:40;;;;;;;32.78;6.55;;;;;;;23.18;81.20;94403.50;5063405;28;20216;-79
2022/08/26 07:25:08;;;;;;;19.10;6.88;;;;;;;23.22;81.93;94398.38;5062784;28;20209;-78
2022/08/26 07:27:36;;;;;;;24.40;5.70;;;;;;;23.31;82.00;94396.56;5063185;28;20205;-79
2022/08/26 07:30:04;;;;;;;25.50;6.53;;;;;;;23.39;81.88;94403.81;5062972;28;20896;-80
2022/08/26 07:32:32;;;;;;;26.88;7.00;;;;;;;23.39;82.09;94403.81;5062818;28;20205;-80
2022/08/26 07:35:00;;;;;;;20.15;6.53;;;;;;;23.43;81.71;94411.94;5062769;28;20857;-80
2022/08/26 07:37:27;;;;;;;27.02;6.70;;;;;;;23.40;81.21;94400.09;5061997;28;20225;-79
2022/08/26 07:39:54;;;;;;;29.40;6.55;;;;;;;23.42;81.45;94405.06;5063379;28;20284;-78
2022/08/26 07:42:21;;;;;;;24.60;6.50;;;;;;;23.40;80.72;94394.78;5066935;28;20213;-80
2022/08/26 07:44:48;;;;;;;20.23;6.57;;;;;;;23.41;81.85;94400.84;5066628;28;20205;-78
2022/08/26 07:47:16;;;;;;;27.98;7.22;;;;;;;23.38;81.57;94398.75;5065840;28;20201;-79
2022/08/26 07:49:43;;;;;;;30.50;6.45;;;;;;;23.51;79.16;94401.38;5065078;28;20614;-78
2022/08/26 07:52:11;;;;;;;24.08;6.80;;;;;;;23.51;79.38;94404.03;5061054;28;20703;-80
2022/08/26 07:54:39;;;;;;;26.33;6.90;;;;;;;23.57;79.43;94407.34;5064509;28;20202;-79
2022/08/26 07:57:06;;;;;;;26.83;6.70;;;;;;;23.64;78.37;94400.50;5063574;28;20225;-79
2022/08/26 07:59:33;;;;;;;27.40;6.88;;;;;;;23.71;77.82;94403.50;5066137;28;20209;-79
2022/08/26 08:02:00;;;;;;;24.92;6.18;;;;;;;23.77;78.00;94408.69;5066706;28;20205;-79
2022/08/26 08:04:27;;;;;;;41.72;7.45;;;;;;;23.79;77.90;94406.50;5064641;28;20205;-80
2022/08/26 08:06:55;;;;;;;27.42;7.30;;;;;;;23.80;77.97;94408.06;5065604;28;20202;-85
2022/08/26 08:09:24;;;;;;;29.80;7.40;;;;;;;23.82;77.70;94409.31;5068454;28;20220;-83
2022/08/26 08:11:51;;;;;;;44.33;7.70;;;;;;;23.85;78.07;94402.63;5068117;28;20197;-82
2022/08/26 08:14:18;;;;;;;38.25;7.35;;;;;;;23.93;78.66;94405.31;5066704;28;20724;-83
2022/08/26 08:16:45;;;;;;;23.55;7.18;;;;;;;24.02;77.63;94408.00;5067905;28;20229;-83
2022/08/26 08:19:13;;;;;;;28.58;7.88;;;;;;;24.05;78.22;94410.03;5066236;28;20213;-83
2022/08/26 08:21:40;;;;;;;31.35;7.25;;;;;;;24.08;79.18;94404.09;5065123;28;20201;-83
2022/08/26 08:24:08;;;;;;;24.60;6.20;;;;;;;24.14;76.63;94401.03;5067555;28;20585;-83
2022/08/26 08:26:37;;;;;;;27.98;7.28;;;;;;;24.17;77.16;94402.28;5065351;28;20205;-82
2022/08/26 08:29:04;;;;;;;32.50;6.72;;;;;;;24.22;77.96;94402.13;5056059;28;20209;-83
2022/08/26 08:31:33;;;;;;;28.95;6.65;;;;;;;24.24;75.56;94405.28;5057488;28;20201;-75
2022/08/26 08:34:00;;;;;;;34.58;7.53;;;;;;;24.23;75.18;94409.81;5061548;28;20213;-76
2022/08/26 08:36:27;;;;;;;33.05;6.75;;;;;;;24.25;76.11;94409.50;5063593;28;20706;-76
2022/08/26 08:38:53;;;;;;;26.63;7.32;;;;;;;24.21;76.62;94403.25;5064336;28;21226;-75
2022/08/26 08:41:40;;;;;;;24.52;6.50;;;;;;;24.32;76.85;94395.75;5064409;28;20201;-76
2022/08/26 08:44:17;;;;;;;25.27;6.22;;;;;;;24.74;74.98;94397.69;5062395;28;20205;-75
2022/08/26 08:46:45;;;;;;;29.00;6.18;;;;;;;24.90;74.18;94398.03;5064584;28;20228;-84
2022/08/26 08:49:14;;;;;;;25.42;5.97;;;;;;;25.01;74.10;94389.41;5066677;28;20213;-83
2022/08/26 08:51:48;;;;;;;19.13;6.13;;;;;;;25.18;73.95;94394.72;5064924;28;20205;-82
2022/08/26 08:54:15;;;;;;;20.30;6.07;;;;;;;25.24;70.64;94393.47;5065289;28;20630;-81
2022/08/26 08:56:48;;;;;;;21.23;6.22;;;;;;;25.31;72.36;94390.31;5067563;28;20194;-82
2022/08/26 08:59:20;;;;;;;38.65;6.43;;;;;;;25.46;71.19;94391.69;5064578;28;20590;-84
2022/08/26 09:01:55;;;;;;;27.52;5.80;;;;;;;25.51;69.87;94387.03;5066537;28;20201;-82
2022/08/26 09:04:40;;;;;;;31.73;5.97;;;;;;;25.58;67.95;94387.28;5066573;28;20239;-84
2022/08/26 09:07:17;;;;;;;28.83;6.60;;;;;;;25.59;64.70;94382.75;5062198;28;20210;-84
2022/08/26 09:09:47;;;;;;;37.85;6.20;;;;;;;25.54;66.65;94378.38;5060022;28;20211;-83
2022/08/26 09:12:20;;;;;;;24.52;5.95;;;;;;;25.42;68.55;94381.66;5064685;28;20270;-84
2022/08/26 09:14:49;;;;;;;22.38;5.82;;;;;;;25.59;69.96;94375.56;5066597;28;20318;-83
2022/08/26 09:17:26;;;;;;;19.67;5.78;;;;;;;25.75;69.94;94373.91;5065758;28;20233;-84
2022/08/26 09:20:02;;;;;;;36.50;7.28;;;;;;;25.98;68.31;94374.44;5068316;28;20212;-84
2022/08/26 09:22:30;;;;;;;26.13;5.35;;;;;;;25.96;63.21;94376.66;5068119;28;20209;-83
2022/08/26 09:24:57;;;;;;;28.67;5.47;;;;;;;26.17;63.99;94371.41;5067807;28;20769;-83
2022/08/26 09:27:41;;;;;;;25.75;5.75;;;;;;;26.39;61.73;94377.22;5069204;28;20209;-83
2022/08/26 09:30:13;;;;;;;21.60;5.90;;;;;;;26.48;62.09;94369.97;5066985;28;20747;-79
2022/08/26 09:32:39;;;;;;;31.13;5.45;;;;;;;26.66;62.17;94370.63;5065581;28;20209;-84
2022/08/26 09:35:09;;;;;;;19.20;5.45;;;;;;;26.78;57.84;94373.31;5067614;28;20213;-83
2022/08/26 09:37:40;;;;;;;20.88;5.25;;;;;;;26.89;56.79;94377.22;5067616;28;20630;-83
2022/08/26 09:40:31;;;;;;;17.77;5.18;;;;;;;27.05;55.94;94369.38;5064874;28;20204;-84
2022/08/26 09:43:14;;;;;;;24.48;5.03;;;;;;;27.03;57.03;94363.59;5064921;28;20604;-84
2022/08/26 09:45:45;;;;;;;18.42;5.18;;;;;;;27.08;56.35;94375.94;5066085;28;20299;-83
2022/08/26 09:48:23;;;;;;;17.08;6.03;;;;;;;26.86;52.72;94375.19;5064210;28;20225;-83
2022/08/26 09:50:54;;;;;;;24.67;5.40;;;;;;;26.89;54.73;94374.53;5062892;28;20201;-74
2022/08/26 09:53:24;;;;;;;17.52;5.57;;;;;;;26.89;57.07;94377.22;5060288;28;20535;-74
2022/08/26 09:56:09;;;;;;;17.63;5.28;;;;;;;26.91;56.88;94380.31;5062427;28;20217;-74
2022/08/26 09:58:38;;;;;;;17.40;5.35;;;;;;;26.90;57.05;94378.75;5059492;28;20233;-74
2022/08/26 10:01:09;;;;;;;9.25;4.10;;;;;;;26.84;57.58;94373.97;5061153;28;20224;-74
2022/08/26 10:03:39;;;;;;;8.40;3.70;;;;;;;26.99;58.81;94376.78;5063842;28;20801;-79
2022/08/26 10:06:19;;;;;;;17.15;5.55;;;;;;;27.01;56.42;94368.47;5064837;28;20212;-79
2022/08/26 10:08:49;;;;;;;17.60;5.32;;;;;;;27.00;55.32;94351.69;5050924;28;20197;-79
2022/08/26 10:11:22;;;;;;;15.75;4.78;;;;;;;27.42;57.48;94354.25;5056624;28;20209;-79
2022/08/26 10:13:55;;;;;;;28.50;5.93;;;;;;;27.77;53.08;94358.09;5061208;28;20233;-79
2022/08/26 10:16:28;;;;;;;11.85;4.82;;;;;;;28.03;52.59;94363.94;5062776;28;20300;-79
2022/08/26 10:19:00;;;;;;;11.05;4.35;;;;;;;28.28;53.56;94363.94;5062647;28;20229;-79
2022/08/26 10:21:32;;;;;;;17.15;5.28;;;;;;;28.44;52.39;94359.44;5057189;28;20763;-79
2022/08/26 10:24:03;;;;;;;13.70;5.43;;;;;;;28.51;50.51;94363.13;5048988;28;20210;-78
2022/08/26 10:26:39;;;;;;;12.05;5.03;;;;;;;28.56;51.58;94360.22;5059889;28;20217;-79
2022/08/26 10:29:13;;;;;;;20.35;5.43;;;;;;;28.63;50.63;94363.09;5062090;28;20281;-79
2022/08/26 10:31:47;;;;;;;11.75;5.57;;;;;;;28.61;49.83;94359.97;5061162;28;20192;-78
2022/08/26 10:34:14;;;;;;;14.23;5.32;;;;;;;28.83;48.69;94361.38;5063847;28;20216;-79
2022/08/26 10:36:50;;;;;;;13.32;5.32;;;;;;;28.99;48.37;94361.44;5062787;28;20205;-79
2022/08/26 10:39:24;;;;;;;14.95;4.90;;;;;;;28.88;47.77;94361.16;5061253;28;20228;-75
2022/08/26 10:41:55;;;;;;;16.73;6.05;;;;;;;28.63;46.56;94363.09;5060517;28;20255;-79
2022/08/26 10:44:24;;;;;;;17.13;6.05;;;;;;;28.81;47.61;94358.25;5062336;28;20643;-79
2022/08/26 10:46:57;;;;;;;26.58;6.22;;;;;;;29.03;46.84;94355.06;5064295;28;20221;-79
2022/08/26 10:49:24;;;;;;;23.45;5.95;;;;;;;29.39;45.06;94358.72;5062479;28;20205;-76
2022/08/26 10:52:00;;;;;;;14.93;5.60;;;;;;;29.67;44.90;94357.53;5063350;28;20204;-79
2022/08/26 10:54:34;;;;;;;17.23;6.20;;;;;;;29.98;43.98;94354.13;5061397;28;20209;-78
2022/08/26 10:57:09;;;;;;;12.45;5.90;;;;;;;30.28;43.88;94357.09;5062731;28;20205;-79
2022/08/26 10:59:49;;;;;;;16.65;5.88;;;;;;;30.65;43.34;94352.94;5063399;28;20216;-79
2022/08/26 11:02:24;;;;;;;23.02;6.05;;;;;;;30.62;41.06;94352.91;5058544;28;20228;-79
2022/08/26 11:04:55;;;;;;;17.08;6.35;;;;;;;30.48;40.26;94364.09;5061269;28;20200;-79
2022/08/26 11:07:36;;;;;;;16.27;6.10;;;;;;;30.55;41.55;94356.19;5061413;28;20202;-78
2022/08/26 11:10:07;;;;;;;11.93;5.75;;;;;;;30.57;41.67;94355.84;5060923;28;20220;-79
2022/08/26 11:12:49;;;;;;;17.67;6.45;;;;;;;30.32;41.42;94353.38;5062742;28;20212;-79
2022/08/26 11:15:58;;;;;;;16.58;6.88;;;;;;;30.42;41.06;94348.63;5057523;28;20228;-79
2022/08/26 11:18:44;;;;;;;22.33;6.25;;;;;;;30.46;41.13;94352.94;5046019;28;20244;-78
2022/08/26 11:21:45;;;;;;;14.32;6.22;;;;;;;30.30;40.91;94352.16;5062045;28;20205;-78
2022/08/26 11:24:39;;;;;;;15.57;6.22;;;;;;;30.36;40.18;94359.56;5059298;28;20209;-79
2022/08/26 11:27:08;;;;;;;16.83;5.43;;;;;;;30.03;40.83;94345.81;5042014;28;20290;-79
2022/08/26 11:30:01;;;;;;;20.70;5.95;;;;;;;29.78;40.64;94345.16;5061584;28;20212;-79
2022/08/26 11:32:47;;;;;;;16.67;6.05;;;;;;;30.04;40.71;94347.38;5062494;28;20212;-75
2022/08/26 11:35:51;;;;;;;16.30;6.05;;;;;;;30.31;41.09;94349.13;5062267;28;20204;-74
2022/08/26 11:38:23;;;;;;;17.00;6.35;;;;;;;30.80;40.11;94349.44;5061167;28;20745;-74
2022/08/26 11:41:06;;;;;;;16.58;6.00;;;;;;;31.26;38.69;94338.84;5062903;28;20208;-74
2022/08/26 11:43:34;;;;;;;10.77;5.97;;;;;;;31.57;35.67;94336.00;5061726;28;20201;-74